Time;durP1;ratioP1;P1;durP2;ratioP2;P2;SDS_P1;SDS_P2;PMS_P1;PMS_P2;Temp;Humidity;BMP_temperature;BMP_pressure;BME280_temperature;BME280_humidity;BME280_pressure;Samples;Min_cycle;Max_cycle;Signal;HPM_P1;HPM_P2
2022/08/12 00:43:55;;;;;;;13.40;12.00;;;22.60;75.40;;;;;;4972347;28;20124;-76
2022/08/12 00:46:32;;;;;;;15.90;14.40;;;22.70;75.40;;;;;;4973079;28;20033;-76
2022/08/12 00:49:00;;;;;;;15.57;12.52;;;22.70;75.20;;;;;;4972441;28;20030;-76
2022/08/12 00:52:05;;;;;;;14.60;13.30;;;22.70;75.30;;;;;;4972369;28;20038;-76
2022/08/12 00:54:15;;;;;;;14.48;13.07;;;22.70;75.40;;;;;;4976162;28;20081;-76
2022/08/12 00:56:41;;;;;;;14.52;12.80;;;22.70;75.20;;;;;;4964836;28;20034;-76
2022/08/12 00:59:08;;;;;;;12.65;11.48;;;22.70;74.90;;;;;;4961163;28;20027;-76
2022/08/12 01:01:35;;;;;;;14.98;13.43;;;22.70;74.30;;;;;;4986755;28;20524;-76
2022/08/12 01:12:31;;;;;;;13.25;11.90;;;22.70;74.00;;;;;;4980863;28;20428;-76
2022/08/12 01:14:57;;;;;;;12.68;11.48;;;22.70;73.80;;;;;;4974230;28;20026;-76
2022/08/12 01:17:24;;;;;;;13.95;12.55;;;22.70;74.10;;;;;;4972185;28;20069;-76
2022/08/12 01:19:54;;;;;;;13.07;11.52;;;22.70;74.00;;;;;;4971190;28;20459;-76
2022/08/12 01:22:34;;;;;;;19.70;12.70;;;22.70;74.50;;;;;;4974474;28;20045;-76
2022/08/12 01:25:08;;;;;;;13.50;12.30;;;22.70;73.80;;;;;;4983560;28;20124;-76
2022/08/12 01:27:38;;;;;;;13.10;11.43;;;22.70;73.80;;;;;;4974325;28;20022;-76
2022/08/12 01:30:07;;;;;;;12.65;11.48;;;22.70;73.60;;;;;;4978463;28;20042;-76
2022/08/12 01:32:36;;;;;;;14.88;12.95;;;22.70;73.80;;;;;;4981458;28;20027;-76
2022/08/12 01:35:12;;;;;;;12.35;11.05;;;22.60;74.40;;;;;;4971612;28;20398;-76
2022/08/12 01:37:59;;;;;;;17.38;13.02;;;22.60;74.60;;;;;;4972613;28;20041;-76
2022/08/12 01:40:32;;;;;;;14.45;13.13;;;22.60;75.20;;;;;;4976470;28;20026;-76
2022/08/12 01:43:06;;;;;;;16.10;14.60;;;22.60;75.10;;;;;;4977836;28;20050;-76
2022/08/12 01:45:33;;;;;;;15.18;13.60;;;22.50;75.00;;;;;;4959865;28;20271;-76
2022/08/12 01:48:33;;;;;;;15.20;13.85;;;22.50;75.20;;;;;;4971820;28;20034;-76
2022/08/12 01:51:12;;;;;;;16.25;14.65;;;22.50;75.20;;;;;;4971343;28;20038;-76
2022/08/12 01:54:05;;;;;;;16.48;14.88;;;22.50;75.30;;;;;;4972730;28;20029;-76
2022/08/12 01:57:02;;;;;;;13.50;12.10;;;22.50;75.30;;;;;;4970737;28;20026;-76
2022/08/12 01:59:45;;;;;;;15.68;14.07;;;22.50;75.60;;;;;;4971019;28;20513;-76
2022/08/12 02:02:15;;;;;;;;;;;22.50;75.60;;;;;;4977050;28;20066;-77
2022/08/12 02:11:15;;;;;;;17.80;16.00;;;22.40;75.30;;;;;;4974119;28;20105;-76
2022/08/12 02:13:54;;;;;;;16.90;15.18;;;22.40;75.20;;;;;;4969696;28;20632;-76
2022/08/12 02:16:35;;;;;;;16.35;14.60;;;22.40;75.10;;;;;;4955961;28;20034;-76
2022/08/12 02:19:25;;;;;;;16.33;14.68;;;22.40;75.00;;;;;;4966845;28;20034;-76
2022/08/12 02:22:09;;;;;;;17.75;15.85;;;22.40;75.20;;;;;;4985806;28;20174;-75
2022/08/12 02:24:38;;;;;;;18.00;16.42;;;22.40;75.00;;;;;;4978989;28;20481;-76
2022/08/12 02:27:07;;;;;;;17.75;16.15;;;22.40;75.00;;;;;;4987129;28;20038;-76
2022/08/12 02:29:34;;;;;;;17.98;16.33;;;22.40;75.00;;;;;;4972920;28;20489;-76
2022/08/12 02:32:02;;;;;;;18.08;16.15;;;22.40;75.10;;;;;;4970652;28;20031;-76
2022/08/12 02:34:29;;;;;;;15.00;13.38;;;22.40;74.90;;;;;;4969867;28;20033;-76
2022/08/12 02:36:56;;;;;;;17.45;15.70;;;22.40;75.00;;;;;;4970617;28;20505;-76
2022/08/12 02:39:27;;;;;;;16.67;15.18;;;22.40;75.00;;;;;;4976035;28;20031;-76
2022/08/12 02:41:56;;;;;;;15.85;13.98;;;22.40;75.20;;;;;;4978899;28;20045;-76
2022/08/12 02:44:25;;;;;;;16.40;14.82;;;22.40;75.20;;;;;;4980647;28;20114;-76
2022/08/12 02:46:55;;;;;;;18.27;16.45;;;22.40;75.30;;;;;;4972823;28;20026;-76
2022/08/12 02:49:34;;;;;;;13.52;11.80;;;22.40;75.40;;;;;;4972369;28;20066;-76
2022/08/12 02:52:00;;;;;;;16.17;14.35;;;22.40;75.70;;;;;;4991686;28;20085;-76
2022/08/12 02:54:26;;;;;;;16.65;14.85;;;22.40;75.50;;;;;;4975611;28;20027;-76
2022/08/12 02:56:53;;;;;;;16.23;14.52;;;22.40;75.50;;;;;;4990120;28;20444;-76
2022/08/12 02:59:22;;;;;;;15.30;13.80;;;22.40;75.50;;;;;;4958752;28;20042;-75
2022/08/12 03:01:54;;;;;;;14.75;12.98;;;22.40;75.50;;;;;;4970984;28;20121;-77
2022/08/12 03:04:36;;;;;;;16.77;14.80;;;22.40;75.70;;;;;;4971874;28;20026;-76
2022/08/12 03:07:21;;;;;;;16.13;14.63;;;22.30;75.30;;;;;;4967665;28;20082;-76
2022/08/12 03:09:56;;;;;;;16.50;14.90;;;22.30;75.30;;;;;;4971172;28;20398;-77
2022/08/12 03:12:23;;;;;;;15.70;13.93;;;22.30;75.30;;;;;;4976147;28;20030;-76
2022/08/12 03:14:52;;;;;;;15.02;13.27;;;22.30;75.80;;;;;;4977336;28;20043;-76
2022/08/12 03:17:28;;;;;;;16.27;14.82;;;22.30;75.60;;;;;;4986458;28;20035;-76
2022/08/12 03:19:56;;;;;;;17.25;13.00;;;22.30;75.40;;;;;;4960950;28;20106;-76
2022/08/12 03:22:23;;;;;;;16.00;14.45;;;22.30;75.70;;;;;;4972177;28;20029;-75
2022/08/12 03:24:50;;;;;;;14.70;13.38;;;22.30;75.70;;;;;;4968623;28;20397;-76
2022/08/12 03:27:16;;;;;;;15.40;13.90;;;22.30;75.50;;;;;;4978620;28;20054;-77
2022/08/12 03:29:48;;;;;;;17.42;14.25;;;22.20;75.50;;;;;;4972834;28;20418;-76
2022/08/12 03:32:14;;;;;;;14.80;13.40;;;22.20;75.40;;;;;;4988292;28;20728;-76
2022/08/12 03:34:41;;;;;;;17.13;15.20;;;22.20;75.70;;;;;;4970105;28;20166;-76
2022/08/12 03:37:09;;;;;;;16.95;15.30;;;22.20;75.40;;;;;;4979444;28;20117;-76
2022/08/12 03:42:32;;;;;;;13.73;12.43;;;22.20;75.50;;;;;;4983049;28;20030;-76
2022/08/12 04:01:50;;;;;;;13.00;11.80;;;22.30;74.40;;;;;;4976883;28;20118;-77
2022/08/12 04:04:17;;;;;;;11.68;10.48;;;22.30;74.40;;;;;;4973070;28;20038;-76
2022/08/12 04:06:44;;;;;;;11.10;9.98;;;22.30;74.60;;;;;;4969316;28;20081;-76
2022/08/12 04:09:11;;;;;;;12.02;10.82;;;22.20;74.40;;;;;;4978544;28;20552;-77
2022/08/12 04:14:25;;;;;;;11.43;10.30;;;22.10;74.80;;;;;;4974457;28;20025;-76
2022/08/12 04:16:52;;;;;;;12.05;10.30;;;22.10;74.90;;;;;;4973516;28;20118;-75
2022/08/12 04:19:19;;;;;;;12.02;10.93;;;22.20;74.80;;;;;;4970782;28;20115;-76
2022/08/12 04:21:45;;;;;;;14.35;12.98;;;22.10;75.00;;;;;;4975922;28;20058;-75
2022/08/12 04:24:12;;;;;;;13.40;12.18;;;22.10;75.20;;;;;;4972131;28;20023;-76
2022/08/12 04:26:39;;;;;;;14.63;13.07;;;22.10;75.50;;;;;;4973936;28;20042;-76
2022/08/12 04:29:06;;;;;;;12.85;11.55;;;22.10;75.40;;;;;;4984446;28;20432;-75
2022/08/12 04:31:39;;;;;;;13.75;12.45;;;22.10;75.50;;;;;;4970753;28;20052;-77
2022/08/12 04:34:06;;;;;;;14.13;11.18;;;22.00;75.50;;;;;;4972983;28;20081;-77
2022/08/12 04:36:33;;;;;;;15.05;11.70;;;22.00;75.90;;;;;;4983790;28;20037;-76
2022/08/12 04:39:01;;;;;;;12.70;11.45;;;22.00;75.70;;;;;;4969872;28;20043;-77
2022/08/12 04:41:30;;;;;;;13.20;12.00;;;22.00;75.70;;;;;;4969983;28;20106;-76
2022/08/12 04:43:56;;;;;;;16.10;13.05;;;22.00;75.60;;;;;;4970088;28;20409;-77
2022/08/12 04:46:24;;;;;;;13.52;12.13;;;22.00;75.60;;;;;;4974232;28;20077;-76
2022/08/12 04:48:53;;;;;;;13.77;12.40;;;22.00;75.50;;;;;;4972022;28;20517;-75
2022/08/12 04:51:20;;;;;;;14.60;12.48;;;22.00;75.40;;;;;;4989230;28;20027;-76
2022/08/12 04:53:47;;;;;;;15.10;12.73;;;22.00;75.40;;;;;;4979224;28;20034;-76
2022/08/12 04:56:14;;;;;;;13.98;12.57;;;22.00;75.50;;;;;;4982110;28;20948;-76
2022/08/12 04:58:41;;;;;;;13.05;11.70;;;22.00;75.40;;;;;;4977476;28;20030;-76
2022/08/12 05:01:08;;;;;;;13.70;12.30;;;22.00;75.40;;;;;;4977794;28;20038;-76
2022/08/12 05:03:34;;;;;;;13.77;12.38;;;21.90;75.10;;;;;;4972908;28;20122;-77
2022/08/12 05:06:01;;;;;;;15.88;11.90;;;21.90;75.30;;;;;;4969232;28;20186;-76
2022/08/12 05:08:27;;;;;;;13.65;11.57;;;22.00;75.50;;;;;;4976982;28;20034;-76
2022/08/12 05:10:53;;;;;;;16.40;13.40;;;21.90;75.30;;;;;;4973967;28;20033;-76
2022/08/12 05:13:28;;;;;;;14.07;12.65;;;21.90;75.40;;;;;;4968082;28;20031;-76
2022/08/12 05:15:53;;;;;;;13.07;11.68;;;21.90;75.60;;;;;;4970355;28;20037;-76
2022/08/12 05:18:20;;;;;;;12.93;11.63;;;21.90;75.50;;;;;;4971374;28;20023;-76
2022/08/12 05:20:47;;;;;;;12.63;11.32;;;21.90;75.60;;;;;;4973556;28;20030;-76
2022/08/12 05:23:16;;;;;;;13.82;12.48;;;21.90;75.90;;;;;;4978999;28;20026;-76
2022/08/12 05:25:43;;;;;;;13.32;12.10;;;21.90;75.80;;;;;;4971729;28;20486;-76
2022/08/12 05:28:11;;;;;;;12.50;11.38;;;21.90;75.40;;;;;;4966928;28;20031;-76
2022/08/12 05:30:38;;;;;;;16.70;11.82;;;21.90;75.50;;;;;;4968760;28;20084;-75
2022/08/12 05:33:05;;;;;;;16.70;12.68;;;21.90;75.80;;;;;;4981156;28;20097;-76
2022/08/12 05:35:38;;;;;;;13.60;12.25;;;21.90;75.70;;;;;;4986530;28;20481;-77
2022/08/12 05:40:53;;;;;;;12.80;11.60;;;21.90;75.40;;;;;;4976896;28;20057;-76
2022/08/12 05:43:19;;;;;;;17.00;13.07;;;21.90;75.50;;;;;;4976493;28;20023;-76
2022/08/12 05:45:46;;;;;;;11.98;10.88;;;21.90;75.50;;;;;;4981574;28;20117;-77
2022/08/12 05:48:12;;;;;;;13.20;11.55;;;21.90;75.40;;;;;;4985260;28;20093;-77
2022/08/12 05:50:39;;;;;;;15.63;11.75;;;22.00;75.50;;;;;;4974962;28;20038;-76
2022/08/12 05:53:06;;;;;;;11.52;10.43;;;21.90;75.50;;;;;;4977896;28;20027;-76
2022/08/12 05:55:32;;;;;;;14.23;12.60;;;21.90;75.60;;;;;;4977703;28;20408;-77
2022/08/12 05:58:00;;;;;;;13.70;12.20;;;22.00;75.60;;;;;;4977370;28;20027;-76
2022/08/12 06:00:28;;;;;;;13.07;11.77;;;22.00;75.70;;;;;;4973546;28;20035;-77
2022/08/12 06:03:01;;;;;;;13.43;11.50;;;22.00;75.60;;;;;;4964464;28;20027;-76
2022/08/12 06:05:28;;;;;;;13.73;11.93;;;22.00;76.10;;;;;;4973655;28;20053;-77
2022/08/12 06:07:56;;;;;;;14.48;11.70;;;22.00;75.60;;;;;;4965178;28;20031;-77
2022/08/12 06:10:22;;;;;;;12.98;11.68;;;22.00;75.60;;;;;;4986787;28;20054;-77
2022/08/12 06:12:49;;;;;;;11.40;10.20;;;22.00;75.70;;;;;;4987514;28;20038;-76
2022/08/12 06:15:21;;;;;;;12.82;11.65;;;22.00;75.90;;;;;;4967020;28;20057;-77
2022/08/12 06:17:47;;;;;;;13.00;11.70;;;22.00;75.90;;;;;;4974628;28;20114;-77
2022/08/12 06:20:14;;;;;;;12.85;11.55;;;22.00;75.80;;;;;;4975445;28;20043;-77
2022/08/12 06:22:42;;;;;;;11.85;10.68;;;22.00;75.90;;;;;;4977231;28;20035;-76
2022/08/12 06:25:08;;;;;;;13.88;11.77;;;22.10;75.90;;;;;;4968705;28;20041;-77
2022/08/12 06:27:44;;;;;;;12.25;10.95;;;22.10;75.90;;;;;;4976888;28;20027;-77
2022/08/12 06:30:10;;;;;;;12.57;11.43;;;22.10;75.90;;;;;;4983509;28;20050;-76
2022/08/12 06:32:37;;;;;;;10.73;8.95;;;22.10;76.10;;;;;;4987423;28;20552;-76
2022/08/12 06:35:04;;;;;;;13.18;11.88;;;22.10;76.20;;;;;;4977044;28;20072;-76
2022/08/12 06:37:37;;;;;;;12.63;11.45;;;22.10;76.30;;;;;;4969809;28;20203;-76
2022/08/12 06:40:03;;;;;;;12.10;10.90;;;22.10;76.20;;;;;;4979182;28;20081;-76
2022/08/12 06:42:47;;;;;;;13.43;11.60;;;22.10;76.10;;;;;;4978506;28;20038;-76
2022/08/12 06:45:20;;;;;;;;;;;22.10;76.10;;;;;;4969797;28;20046;-76
2022/08/12 06:47:49;;;;;;;15.07;12.10;;;22.10;76.10;;;;;;4968123;28;19917;-76
2022/08/12 06:50:17;;;;;;;13.32;12.02;;;22.10;76.20;;;;;;4977688;28;20058;-76
2022/08/12 06:52:46;;;;;;;14.25;12.95;;;22.10;76.10;;;;;;4977819;28;20453;-76
2022/08/12 06:55:19;;;;;;;13.05;11.75;;;22.10;76.10;;;;;;4970137;28;20097;-76
2022/08/12 06:58:00;;;;;;;15.68;11.77;;;22.20;76.30;;;;;;4974934;28;20031;-76
2022/08/12 07:00:36;;;;;;;13.85;11.70;;;22.20;76.40;;;;;;4976703;28;20114;-76
2022/08/12 07:03:04;;;;;;;14.75;12.05;;;22.20;76.30;;;;;;4974666;28;20045;-76
2022/08/12 07:05:30;;;;;;;12.55;11.32;;;22.20;76.20;;;;;;4967288;28;20038;-76
2022/08/12 07:08:01;;;;;;;14.63;11.23;;;22.20;76.20;;;;;;4977645;28;20031;-76
2022/08/12 07:10:31;;;;;;;12.95;11.45;;;22.20;76.20;;;;;;4968869;28;20058;-76
2022/08/12 07:13:00;;;;;;;13.60;12.13;;;22.20;76.10;;;;;;4973854;28;20027;-76
2022/08/12 07:15:28;;;;;;;12.05;10.75;;;22.30;76.20;;;;;;4971928;28;20023;-76
2022/08/12 07:20:44;;;;;;;12.63;11.32;;;22.30;76.10;;;;;;4968634;28;20034;-76
2022/08/12 07:23:10;;;;;;;12.10;11.00;;;22.30;76.10;;;;;;4981885;28;20019;-76
2022/08/12 07:25:38;;;;;;;10.80;9.70;;;22.30;76.00;;;;;;4977694;28;20026;-77
2022/08/12 07:28:07;;;;;;;17.15;9.63;;;22.40;76.20;;;;;;4974215;28;20105;-76
2022/08/12 07:30:37;;;;;;;10.00;8.82;;;22.40;75.80;;;;;;4968076;28;20381;-76
2022/08/12 07:33:07;;;;;;;12.55;9.75;;;22.40;75.60;;;;;;4966826;28;20031;-75
2022/08/12 07:35:36;;;;;;;11.25;9.20;;;22.50;75.50;;;;;;4971451;28;20392;-76
2022/08/12 07:38:02;;;;;;;10.57;9.15;;;22.40;75.40;;;;;;4968790;28;20110;-76
2022/08/12 07:40:28;;;;;;;10.77;9.65;;;22.40;75.50;;;;;;4973286;28;20450;-76
2022/08/12 07:42:55;;;;;;;11.70;9.77;;;22.40;75.60;;;;;;4975458;28;20031;-76
2022/08/12 07:45:23;;;;;;;9.65;8.50;;;22.40;75.60;;;;;;4970327;28;20050;-76
2022/08/12 07:47:50;;;;;;;13.13;9.18;;;22.40;75.50;;;;;;4983512;28;20073;-76
2022/08/12 07:50:18;;;;;;;10.40;8.35;;;22.40;75.50;;;;;;4977075;28;20613;-76
2022/08/12 07:52:45;;;;;;;9.07;7.63;;;22.40;75.60;;;;;;4968428;28;20031;-76
2022/08/12 07:55:14;;;;;;;13.23;9.10;;;22.40;75.70;;;;;;4970345;28;20035;-76
2022/08/12 07:57:58;;;;;;;12.15;9.98;;;22.40;75.60;;;;;;4975380;28;20026;-76
2022/08/12 08:00:28;;;;;;;;;;;22.40;75.40;;;;;;4968431;28;20026;-76
2022/08/12 08:02:54;;;;;;;8.73;7.93;;;22.40;75.60;;;;;;4974013;28;19906;-76
2022/08/12 08:05:22;;;;;;;8.20;7.18;;;22.40;75.60;;;;;;4969287;28;20023;-77
2022/08/12 08:07:48;;;;;;;9.27;7.90;;;22.40;75.70;;;;;;4968176;28;20054;-75
2022/08/12 08:10:15;;;;;;;7.78;7.07;;;22.40;75.70;;;;;;4978104;28;20039;-76
2022/08/12 08:12:55;;;;;;;7.47;6.80;;;22.40;75.80;;;;;;4974757;28;20501;-75
2022/08/12 08:15:26;;;;;;;11.68;7.32;;;22.40;76.10;;;;;;4974200;28;20579;-77
2022/08/12 08:18:19;;;;;;;12.25;8.85;;;22.50;75.10;;;;;;4972500;28;20066;-76
2022/08/12 08:20:45;;;;;;;9.15;8.30;;;22.50;74.90;;;;;;4978570;28;20130;-76
2022/08/12 08:23:15;;;;;;;7.85;7.05;;;22.40;75.10;;;;;;4983782;28;20125;-76
2022/08/12 08:25:42;;;;;;;7.05;6.43;;;22.50;75.20;;;;;;4972063;28;20045;-76
2022/08/12 08:28:10;;;;;;;7.65;6.85;;;22.50;74.80;;;;;;4982813;28;20038;-76
2022/08/12 08:30:41;;;;;;;8.63;7.43;;;22.50;74.30;;;;;;4973632;28;20073;-76
2022/08/12 08:33:10;;;;;;;6.68;5.95;;;22.50;74.50;;;;;;4976806;28;20058;-76
2022/08/12 08:35:38;;;;;;;6.30;5.70;;;22.50;74.70;;;;;;4969986;28;20133;-77
2022/08/12 08:38:13;;;;;;;7.13;6.43;;;22.50;74.90;;;;;;4970731;28;20122;-76
2022/08/12 08:43:26;;;;;;;7.32;6.63;;;22.60;73.90;;;;;;4974702;28;20088;-76
2022/08/12 08:45:53;;;;;;;7.95;7.15;;;22.60;73.70;;;;;;4973947;28;20107;-76
2022/08/12 08:48:20;;;;;;;7.20;6.50;;;22.60;73.70;;;;;;4971561;28;20032;-76
2022/08/12 08:50:47;;;;;;;8.10;6.60;;;22.60;73.90;;;;;;4966874;28;20512;-76
2022/08/12 08:53:13;;;;;;;7.20;6.50;;;22.60;74.20;;;;;;4975359;28;20054;-76
2022/08/12 08:55:41;;;;;;;7.45;6.65;;;22.60;74.10;;;;;;4978227;28;20069;-77
2022/08/12 08:58:07;;;;;;;6.45;5.43;;;22.50;74.10;;;;;;4973230;28;20287;-76
2022/08/12 09:00:36;;;;;;;6.75;6.05;;;22.50;74.50;;;;;;4969148;28;20472;-75
2022/08/12 09:03:03;;;;;;;6.60;6.00;;;22.50;74.30;;;;;;4970480;28;20063;-77
2022/08/12 09:05:29;;;;;;;6.40;5.75;;;22.50;74.10;;;;;;4981797;28;20084;-76
2022/08/12 09:07:58;;;;;;;6.80;6.05;;;22.60;74.00;;;;;;4976857;28;20033;-77
2022/08/12 09:10:23;;;;;;;7.47;5.85;;;22.60;73.80;;;;;;4967503;28;20276;-76
2022/08/12 09:15:37;;;;;;;13.90;6.75;;;22.60;74.30;;;;;;4967492;28;20504;-77
2022/08/12 09:18:05;;;;;;;6.75;6.15;;;22.60;73.30;;;;;;4970601;28;20469;-76
2022/08/12 09:20:33;;;;;;;6.18;5.57;;;22.60;73.20;;;;;;4975040;28;20081;-75
2022/08/12 09:23:00;;;;;;;8.65;6.18;;;22.60;73.00;;;;;;4969382;28;20035;-76
2022/08/12 09:25:30;;;;;;;6.80;6.13;;;22.60;73.10;;;;;;4982567;28;20063;-77
2022/08/12 09:27:57;;;;;;;8.57;6.05;;;22.60;73.10;;;;;;4970655;28;20051;-77
2022/08/12 09:30:24;;;;;;;7.43;6.28;;;22.60;73.30;;;;;;4973576;28;20488;-76
2022/08/12 09:32:50;;;;;;;6.13;5.50;;;22.60;73.20;;;;;;4973615;28;20478;-76
2022/08/12 09:35:19;;;;;;;7.47;5.85;;;22.60;73.10;;;;;;4982287;28;20169;-76
2022/08/12 09:37:49;;;;;;;5.95;5.30;;;22.60;73.30;;;;;;4977649;28;20030;-76
2022/08/12 09:40:16;;;;;;;7.65;5.72;;;22.60;73.20;;;;;;4985195;28;20170;-76
2022/08/12 09:45:30;;;;;;;6.63;5.63;;;22.60;72.90;;;;;;4973213;28;20042;-76
2022/08/12 09:47:58;;;;;;;10.73;6.10;;;22.60;72.90;;;;;;4970637;28;20030;-76
2022/08/12 09:50:24;;;;;;;10.48;5.72;;;22.60;72.90;;;;;;4972722;28;20023;-76
2022/08/12 09:53:08;;;;;;;5.78;5.20;;;22.60;72.80;;;;;;4970881;28;20022;-76
2022/08/12 09:55:36;;;;;;;6.03;5.50;;;22.60;72.40;;;;;;4969569;28;20113;-76
2022/08/12 09:58:05;;;;;;;5.68;4.95;;;22.60;72.60;;;;;;4977000;28;20113;-76
2022/08/12 10:00:33;;;;;;;7.22;6.53;;;22.70;71.80;;;;;;4969051;28;20389;-76
2022/08/12 10:03:09;;;;;;;6.55;5.85;;;22.60;71.70;;;;;;4969365;28;20065;-76
2022/08/12 10:05:39;;;;;;;6.63;5.93;;;22.60;71.80;;;;;;4968158;28;20405;-76
2022/08/12 10:08:09;;;;;;;7.00;6.40;;;22.70;72.10;;;;;;4967654;28;20405;-76
2022/08/12 10:13:41;;;;;;;7.32;5.22;;;22.70;72.10;;;;;;4971812;28;20042;-76
2022/08/12 10:16:17;;;;;;;6.07;4.63;;;22.60;72.60;;;;;;4977550;28;20466;-76
2022/08/12 10:18:54;;;;;;;5.35;4.85;;;22.60;72.60;;;;;;4974945;28;20026;-76
2022/08/12 10:21:23;;;;;;;12.25;5.35;;;22.60;72.60;;;;;;4976842;28;20027;-76
2022/08/12 10:23:50;;;;;;;5.97;5.35;;;22.60;72.20;;;;;;4972400;28;20042;-76
2022/08/12 10:31:50;;;;;;;5.80;5.00;;;22.70;71.60;;;;;;4965997;28;20200;-76
2022/08/12 10:34:16;;;;;;;6.03;5.35;;;22.70;72.00;;;;;;4974647;28;20090;-76
2022/08/12 10:36:43;;;;;;;12.95;5.80;;;22.70;72.40;;;;;;4970568;28;20038;-76
2022/08/12 10:39:12;;;;;;;7.28;4.90;;;22.60;72.50;;;;;;4966882;28;20037;-77
2022/08/12 10:44:22;;;;;;;5.15;4.60;;;22.60;72.90;;;;;;4976065;28;20405;-76
2022/08/12 10:46:51;;;;;;;8.20;5.05;;;22.60;72.80;;;;;;4968835;28;20042;-76
2022/08/12 10:49:18;;;;;;;5.65;5.15;;;22.60;72.40;;;;;;4965994;28;20023;-76
2022/08/12 10:51:47;;;;;;;5.85;5.25;;;22.60;72.60;;;;;;4964541;28;20441;-76
2022/08/12 10:54:15;;;;;;;5.55;5.05;;;22.60;72.40;;;;;;4968575;28;20031;-77
2022/08/12 10:56:48;;;;;;;5.30;4.80;;;22.60;72.00;;;;;;4969234;28;20081;-75
2022/08/12 10:59:20;;;;;;;6.28;5.50;;;22.60;71.80;;;;;;4966678;28;20036;-76
2022/08/12 11:01:48;;;;;;;10.50;5.35;;;22.60;71.60;;;;;;4968018;28;20461;-76
2022/08/12 11:04:15;;;;;;;7.25;5.65;;;22.60;72.00;;;;;;4965782;28;20057;-76
2022/08/12 11:06:46;;;;;;;5.88;5.38;;;22.60;71.50;;;;;;4967926;28;20085;-76
2022/08/12 11:09:17;;;;;;;7.70;5.05;;;22.60;71.80;;;;;;4971217;28;20054;-77
2022/08/12 11:11:46;;;;;;;8.13;5.97;;;22.60;71.70;;;;;;4971049;28;20031;-76
2022/08/12 11:14:12;;;;;;;6.53;5.93;;;22.70;70.60;;;;;;4972400;28;20027;-77
2022/08/12 11:16:37;;;;;;;12.25;5.13;;;22.70;70.70;;;;;;4969073;28;20053;-76
2022/08/12 11:19:03;;;;;;;6.47;4.90;;;22.70;71.40;;;;;;4979643;28;20085;-76
2022/08/12 11:21:30;;;;;;;6.20;5.43;;;22.70;70.70;;;;;;4968300;28;20392;-76
2022/08/12 11:23:55;;;;;;;8.48;5.70;;;22.70;70.80;;;;;;4991900;28;20026;-76
2022/08/12 11:26:21;;;;;;;8.40;5.68;;;22.70;70.30;;;;;;4967967;28;20109;-76
2022/08/12 11:28:47;;;;;;;9.32;5.20;;;22.70;70.50;;;;;;4963418;28;20035;-76
2022/08/12 11:31:13;;;;;;;6.25;5.68;;;22.70;70.80;;;;;;4965520;28;20513;-76
2022/08/12 11:33:39;;;;;;;5.05;4.55;;;22.70;70.90;;;;;;4965757;28;20149;-77
2022/08/12 11:36:07;;;;;;;7.03;5.50;;;22.70;71.60;;;;;;4965600;28;20031;-76
2022/08/12 11:38:33;;;;;;;4.97;4.50;;;22.70;71.40;;;;;;4971149;28;20037;-77
2022/08/12 11:41:01;;;;;;;8.50;5.82;;;22.70;70.90;;;;;;4966773;28;20037;-77
2022/08/12 11:43:26;;;;;;;5.75;4.82;;;22.60;70.40;;;;;;4972875;28;20481;-76
2022/08/12 11:45:52;;;;;;;5.97;4.90;;;22.60;70.80;;;;;;4967619;28;20027;-76
2022/08/12 11:48:18;;;;;;;5.90;4.97;;;22.70;70.60;;;;;;4972638;28;20069;-76
2022/08/12 11:50:44;;;;;;;6.07;5.55;;;22.70;69.90;;;;;;4985356;28;20201;-76
2022/08/12 11:53:09;;;;;;;5.65;5.15;;;22.70;70.20;;;;;;4975515;28;20031;-77
2022/08/12 11:55:35;;;;;;;5.80;5.30;;;22.70;70.20;;;;;;4971614;28;20034;-76
2022/08/12 11:58:01;;;;;;;7.45;5.57;;;22.70;70.00;;;;;;4970399;28;20030;-76
2022/08/12 12:00:27;;;;;;;6.20;5.60;;;22.70;70.10;;;;;;4973126;28;20026;-77
2022/08/12 12:02:53;;;;;;;6.78;6.10;;;22.70;70.40;;;;;;4974062;28;20030;-76
2022/08/12 12:05:19;;;;;;;5.97;5.20;;;22.70;70.40;;;;;;4974066;28;20027;-76
2022/08/12 12:07:45;;;;;;;6.78;5.20;;;22.70;70.20;;;;;;4985464;28;20039;-77
2022/08/12 12:10:18;;;;;;;5.38;4.88;;;22.70;70.50;;;;;;4972188;28;20576;-78
2022/08/12 12:12:44;;;;;;;3.63;3.22;;;22.70;69.60;;;;;;4981893;28;20035;-78
2022/08/12 12:15:11;;;;;;;4.20;2.92;;;22.90;65.20;;;;;;4973567;28;20425;-77
2022/08/12 12:17:41;;;;;;;6.53;4.70;;;23.20;64.70;;;;;;4981520;28;20034;-77
2022/08/12 12:20:09;;;;;;;7.40;5.15;;;23.20;65.30;;;;;;4980980;28;20034;-77
2022/08/12 12:22:40;;;;;;;5.13;4.57;;;23.20;65.90;;;;;;4972929;28;20015;-77
2022/08/12 12:25:07;;;;;;;9.88;5.55;;;23.20;66.60;;;;;;4977671;28;20549;-77
2022/08/12 12:27:53;;;;;;;7.75;6.07;;;23.20;66.70;;;;;;4977903;28;20033;-77
2022/08/12 12:30:19;;;;;;;6.35;5.70;;;23.10;67.00;;;;;;4970263;28;20050;-78
2022/08/12 12:32:45;;;;;;;9.77;5.78;;;23.00;67.00;;;;;;4981766;28;20035;-77
2022/08/12 12:35:12;;;;;;;6.57;5.63;;;22.90;67.10;;;;;;4982411;28;20077;-78
2022/08/12 12:37:56;;;;;;;8.30;6.70;;;22.90;67.40;;;;;;4976858;28;20090;-79
2022/08/12 12:40:22;;;;;;;;;;;22.90;67.90;;;;;;4983427;28;20433;-77
2022/08/12 12:42:51;;;;;;;5.68;4.95;;;22.80;67.90;;;;;;4970926;28;20305;-77
2022/08/12 12:45:17;;;;;;;6.10;5.22;;;22.80;68.00;;;;;;4971062;28;20118;-77
2022/08/12 12:47:59;;;;;;;7.55;5.68;;;22.80;68.10;;;;;;4972692;28;20413;-77
2022/08/12 12:50:27;;;;;;;8.85;5.57;;;22.80;67.80;;;;;;4969673;28;20034;-78
2022/08/12 12:52:53;;;;;;;5.72;4.38;;;22.80;68.50;;;;;;4971992;28;20019;-78
2022/08/12 12:55:20;;;;;;;6.53;5.93;;;22.80;68.40;;;;;;4970772;28;20402;-77
2022/08/12 12:57:47;;;;;;;5.85;5.35;;;22.80;68.20;;;;;;4969494;28;20027;-78
2022/08/12 13:00:15;;;;;;;6.53;5.53;;;22.80;69.10;;;;;;4974034;28;20110;-77
2022/08/12 13:02:54;;;;;;;6.70;5.68;;;22.80;69.20;;;;;;4978464;28;20034;-78
2022/08/12 13:05:33;;;;;;;8.13;5.50;;;22.70;69.10;;;;;;4971860;28;20027;-78
2022/08/12 13:08:00;;;;;;;8.23;5.55;;;22.70;69.10;;;;;;4969195;28;20118;-78
2022/08/12 13:10:27;;;;;;;7.35;5.55;;;22.70;69.20;;;;;;4988838;28;20114;-78
2022/08/12 13:12:54;;;;;;;5.82;5.22;;;22.70;69.20;;;;;;4977019;28;20037;-78
2022/08/12 13:15:20;;;;;;;5.68;5.00;;;22.70;69.70;;;;;;4971330;28;20023;-77
2022/08/12 13:17:55;;;;;;;5.47;4.97;;;22.70;69.20;;;;;;4967963;28;20039;-77
2022/08/12 13:20:22;;;;;;;5.32;4.65;;;22.70;69.10;;;;;;4968509;28;20027;-77
2022/08/12 13:22:48;;;;;;;7.47;5.57;;;22.70;69.20;;;;;;4971917;28;20526;-77
2022/08/12 13:25:18;;;;;;;6.15;5.38;;;22.70;68.90;;;;;;4966569;28;20474;-77
2022/08/12 13:27:47;;;;;;;6.53;5.93;;;22.80;67.90;;;;;;4969384;28;20525;-77
2022/08/12 13:30:19;;;;;;;8.10;5.80;;;22.80;67.90;;;;;;4968846;28;20027;-77
2022/08/12 13:32:56;;;;;;;7.53;5.47;;;22.80;68.30;;;;;;4972937;28;20030;-77
2022/08/12 13:35:22;;;;;;;6.72;6.05;;;22.80;68.80;;;;;;4979051;28;20034;-77
2022/08/12 13:37:52;;;;;;;7.30;6.47;;;22.80;68.70;;;;;;4982442;28;20469;-78
2022/08/12 13:40:19;;;;;;;6.93;5.72;;;22.80;68.20;;;;;;4985238;28;20223;-77
2022/08/12 13:42:47;;;;;;;10.00;5.63;;;22.80;67.70;;;;;;4973266;28;20022;-77
2022/08/12 13:45:17;;;;;;;8.60;6.95;;;22.80;67.90;;;;;;4972793;28;20015;-78
2022/08/12 13:48:09;;;;;;;6.63;6.03;;;22.80;67.90;;;;;;4977568;28;20043;-77
2022/08/12 13:50:40;;;;;;;7.03;6.32;;;22.80;68.40;;;;;;4957569;28;20430;-77
2022/08/12 13:53:09;;;;;;;5.35;4.85;;;22.80;68.30;;;;;;4979686;28;20554;-77
2022/08/12 13:55:42;;;;;;;6.40;5.80;;;22.80;69.10;;;;;;4980773;28;20019;-78
2022/08/12 13:58:10;;;;;;;7.83;6.43;;;22.80;68.40;;;;;;4971710;28;20226;-77
2022/08/12 14:00:37;;;;;;;7.07;6.00;;;22.80;68.40;;;;;;4971097;28;20478;-78
2022/08/12 14:03:03;;;;;;;9.55;6.28;;;22.80;68.40;;;;;;4971754;28;20043;-77
2022/08/12 14:05:31;;;;;;;6.97;6.30;;;22.80;69.00;;;;;;4970247;28;20532;-78
2022/08/12 14:07:58;;;;;;;7.25;5.82;;;22.80;68.30;;;;;;4975292;28;20054;-77
2022/08/12 14:10:35;;;;;;;5.82;5.22;;;22.80;68.20;;;;;;4970912;28;20038;-77
2022/08/12 14:13:13;;;;;;;8.35;6.47;;;22.90;68.20;;;;;;4987661;28;20023;-77
2022/08/12 14:15:42;;;;;;;7.15;5.70;;;22.90;67.90;;;;;;4967916;28;20494;-77
2022/08/12 14:18:09;;;;;;;9.18;6.22;;;22.90;68.10;;;;;;4981274;28;20030;-78
2022/08/12 14:20:35;;;;;;;7.18;6.47;;;22.90;67.90;;;;;;4984572;28;20135;-77
2022/08/12 14:23:01;;;;;;;6.57;5.97;;;22.90;67.70;;;;;;4977171;28;20411;-77
2022/08/12 14:25:27;;;;;;;7.38;6.63;;;22.90;68.10;;;;;;4979874;28;20030;-77
2022/08/12 14:28:16;;;;;;;8.73;6.32;;;22.90;68.20;;;;;;4970912;28;20039;-78
2022/08/12 14:30:42;;;;;;;8.77;7.10;;;22.90;67.70;;;;;;4979970;28;20117;-77
2022/08/12 14:33:08;;;;;;;12.52;6.63;;;22.90;67.90;;;;;;4972611;28;20022;-77
2022/08/12 14:35:34;;;;;;;6.65;6.05;;;22.90;68.50;;;;;;4973402;28;20022;-78